sensor_id;sensor_type;location;lat;lon;timestamp;temperature;humidity
13482;DHT22;6813;60.352;15.746;2023-08-01T00:00:01;16.30;99.90
13482;DHT22;6813;60.352;15.746;2023-08-01T00:02:28;16.40;99.90
13482;DHT22;6813;60.352;15.746;2023-08-01T00:04:54;16.50;99.90
13482;DHT22;6813;60.352;15.746;2023-08-01T00:07:20;16.50;99.90
13482;DHT22;6813;60.352;15.746;2023-08-01T00:09:46;16.40;99.90
13482;DHT22;6813;60.352;15.746;2023-08-01T00:12:12;16.10;99.90
13482;DHT22;6813;60.352;15.746;2023-08-01T00:14:37;15.70;99.90
13482;DHT22;6813;60.352;15.746;2023-08-01T00:17:03;15.50;99.90
13482;DHT22;6813;60.352;15.746;2023-08-01T00:19:29;15.30;99.90
13482;DHT22;6813;60.352;15.746;2023-08-01T00:21:54;15.20;99.90
13482;DHT22;6813;60.352;15.746;2023-08-01T00:24:20;15.10;99.90
13482;DHT22;6813;60.352;15.746;2023-08-01T00:26:46;15.10;99.90
13482;DHT22;6813;60.352;15.746;2023-08-01T00:29:13;15.20;99.90
13482;DHT22;6813;60.352;15.746;2023-08-01T00:31:38;15.10;99.90
13482;DHT22;6813;60.352;15.746;2023-08-01T00:34:04;15.00;99.90
13482;DHT22;6813;60.352;15.746;2023-08-01T00:36:30;15.10;99.90
13482;DHT22;6813;60.352;15.746;2023-08-01T00:38:55;15.20;99.90
13482;DHT22;6813;60.352;15.746;2023-08-01T00:41:21;15.00;99.90
13482;DHT22;6813;60.352;15.746;2023-08-01T00:43:47;15.00;99.90
13482;DHT22;6813;60.352;15.746;2023-08-01T00:46:13;15.10;99.90
13482;DHT22;6813;60.352;15.746;2023-08-01T00:48:39;15.20;99.90
13482;DHT22;6813;60.352;15.746;2023-08-01T00:51:06;15.40;99.90
13482;DHT22;6813;60.352;15.746;2023-08-01T00:53:32;15.50;99.90
13482;DHT22;6813;60.352;15.746;2023-08-01T00:55:59;15.50;99.90
13482;DHT22;6813;60.352;15.746;2023-08-01T00:58:25;15.30;99.90
13482;DHT22;6813;60.352;15.746;2023-08-01T01:00:51;15.30;99.90
13482;DHT22;6813;60.352;15.746;2023-08-01T01:03:17;15.20;99.90
13482;DHT22;6813;60.352;15.746;2023-08-01T01:05:49;15.10;99.90
13482;DHT22;6813;60.352;15.746;2023-08-01T01:08:15;15.10;99.90
13482;DHT22;6813;60.352;15.746;2023-08-01T01:10:41;15.00;99.90
13482;DHT22;6813;60.352;15.746;2023-08-01T01:13:06;15.00;99.90
13482;DHT22;6813;60.352;15.746;2023-08-01T01:15:32;14.80;99.90
13482;DHT22;6813;60.352;15.746;2023-08-01T01:17:58;14.60;99.90
13482;DHT22;6813;60.352;15.746;2023-08-01T01:20:24;14.60;99.90
13482;DHT22;6813;60.352;15.746;2023-08-01T01:22:52;14.60;99.90
13482;DHT22;6813;60.352;15.746;2023-08-01T01:25:20;14.60;99.90
13482;DHT22;6813;60.352;15.746;2023-08-01T01:27:49;14.60;99.90
13482;DHT22;6813;60.352;15.746;2023-08-01T01:30:18;14.60;99.90
13482;DHT22;6813;60.352;15.746;2023-08-01T01:32:44;14.60;99.90
13482;DHT22;6813;60.352;15.746;2023-08-01T01:35:10;14.70;99.90
13482;DHT22;6813;60.352;15.746;2023-08-01T01:37:36;14.80;99.90
13482;DHT22;6813;60.352;15.746;2023-08-01T01:40:01;14.80;99.90
13482;DHT22;6813;60.352;15.746;2023-08-01T01:42:27;14.80;99.90
13482;DHT22;6813;60.352;15.746;2023-08-01T01:44:53;14.90;99.90
13482;DHT22;6813;60.352;15.746;2023-08-01T01:47:19;14.90;99.90
13482;DHT22;6813;60.352;15.746;2023-08-01T01:49:45;15.00;99.90
13482;DHT22;6813;60.352;15.746;2023-08-01T01:52:10;15.00;99.90
13482;DHT22;6813;60.352;15.746;2023-08-01T01:54:36;15.10;99.90
13482;DHT22;6813;60.352;15.746;2023-08-01T01:57:02;15.30;99.90
13482;DHT22;6813;60.352;15.746;2023-08-01T01:59:28;15.50;99.90
13482;DHT22;6813;60.352;15.746;2023-08-01T02:01:53;15.60;99.90
13482;DHT22;6813;60.352;15.746;2023-08-01T02:04:20;15.70;99.90
13482;DHT22;6813;60.352;15.746;2023-08-01T02:06:45;15.80;99.90
13482;DHT22;6813;60.352;15.746;2023-08-01T02:09:11;15.80;99.90
13482;DHT22;6813;60.352;15.746;2023-08-01T02:11:37;15.90;99.90
13482;DHT22;6813;60.352;15.746;2023-08-01T02:14:02;15.90;99.90
13482;DHT22;6813;60.352;15.746;2023-08-01T02:16:28;15.90;99.90
13482;DHT22;6813;60.352;15.746;2023-08-01T02:18:54;15.90;99.90
13482;DHT22;6813;60.352;15.746;2023-08-01T02:21:20;16.00;99.90
13482;DHT22;6813;60.352;15.746;2023-08-01T02:23:45;15.80;99.90
13482;DHT22;6813;60.352;15.746;2023-08-01T02:26:11;15.60;99.90
13482;DHT22;6813;60.352;15.746;2023-08-01T02:28:37;15.40;99.90
13482;DHT22;6813;60.352;15.746;2023-08-01T02:31:03;15.40;99.90
13482;DHT22;6813;60.352;15.746;2023-08-01T02:33:28;15.50;99.90
13482;DHT22;6813;60.352;15.746;2023-08-01T02:35:54;15.60;99.90
13482;DHT22;6813;60.352;15.746;2023-08-01T02:38:20;15.70;99.90
13482;DHT22;6813;60.352;15.746;2023-08-01T02:40:45;15.70;99.90
13482;DHT22;6813;60.352;15.746;2023-08-01T02:43:11;15.80;99.90
13482;DHT22;6813;60.352;15.746;2023-08-01T02:45:37;15.90;99.90
13482;DHT22;6813;60.352;15.746;2023-08-01T02:48:04;15.90;99.90
13482;DHT22;6813;60.352;15.746;2023-08-01T02:50:30;15.90;99.90
13482;DHT22;6813;60.352;15.746;2023-08-01T02:52:55;15.90;99.90
13482;DHT22;6813;60.352;15.746;2023-08-01T02:55:22;15.90;99.90
13482;DHT22;6813;60.352;15.746;2023-08-01T02:57:49;15.90;99.90
13482;DHT22;6813;60.352;15.746;2023-08-01T03:00:14;15.90;99.90
13482;DHT22;6813;60.352;15.746;2023-08-01T03:02:43;16.00;99.90
13482;DHT22;6813;60.352;15.746;2023-08-01T03:05:09;16.00;99.90
13482;DHT22;6813;60.352;15.746;2023-08-01T03:07:36;16.00;99.90
13482;DHT22;6813;60.352;15.746;2023-08-01T03:10:02;15.90;99.90
13482;DHT22;6813;60.352;15.746;2023-08-01T03:12:28;15.90;99.90
13482;DHT22;6813;60.352;15.746;2023-08-01T03:14:54;15.90;99.90
13482;DHT22;6813;60.352;15.746;2023-08-01T03:17:20;16.00;99.90
13482;DHT22;6813;60.352;15.746;2023-08-01T03:19:46;15.90;99.90
13482;DHT22;6813;60.352;15.746;2023-08-01T03:22:12;15.90;99.90
13482;DHT22;6813;60.352;15.746;2023-08-01T03:24:39;15.90;99.90
13482;DHT22;6813;60.352;15.746;2023-08-01T03:27:05;15.90;99.90
13482;DHT22;6813;60.352;15.746;2023-08-01T03:29:31;15.80;99.90
13482;DHT22;6813;60.352;15.746;2023-08-01T03:31:57;15.80;99.90
13482;DHT22;6813;60.352;15.746;2023-08-01T03:34:22;15.90;99.90
13482;DHT22;6813;60.352;15.746;2023-08-01T03:36:49;15.90;99.90
13482;DHT22;6813;60.352;15.746;2023-08-01T03:39:15;15.90;99.90
13482;DHT22;6813;60.352;15.746;2023-08-01T03:41:41;15.90;99.90
13482;DHT22;6813;60.352;15.746;2023-08-01T03:44:06;15.90;99.90
13482;DHT22;6813;60.352;15.746;2023-08-01T03:46:32;15.90;99.90
13482;DHT22;6813;60.352;15.746;2023-08-01T03:48:58;15.90;99.90
13482;DHT22;6813;60.352;15.746;2023-08-01T03:51:23;15.90;99.90
13482;DHT22;6813;60.352;15.746;2023-08-01T03:53:49;15.90;99.90
13482;DHT22;6813;60.352;15.746;2023-08-01T03:56:15;15.70;99.90
13482;DHT22;6813;60.352;15.746;2023-08-01T03:58:41;15.70;99.90
13482;DHT22;6813;60.352;15.746;2023-08-01T04:01:06;15.50;99.90
13482;DHT22;6813;60.352;15.746;2023-08-01T04:03:32;15.20;99.90
13482;DHT22;6813;60.352;15.746;2023-08-01T04:05:58;15.00;99.90
13482;DHT22;6813;60.352;15.746;2023-08-01T04:08:24;14.80;99.90
13482;DHT22;6813;60.352;15.746;2023-08-01T04:10:49;14.70;99.90
13482;DHT22;6813;60.352;15.746;2023-08-01T04:13:16;14.50;99.90
13482;DHT22;6813;60.352;15.746;2023-08-01T04:15:41;14.40;99.90
13482;DHT22;6813;60.352;15.746;2023-08-01T04:18:07;14.40;99.90
13482;DHT22;6813;60.352;15.746;2023-08-01T04:20:33;14.40;99.90
13482;DHT22;6813;60.352;15.746;2023-08-01T04:22:58;14.30;99.90
13482;DHT22;6813;60.352;15.746;2023-08-01T04:25:24;14.20;99.90
13482;DHT22;6813;60.352;15.746;2023-08-01T04:27:52;14.10;99.90
13482;DHT22;6813;60.352;15.746;2023-08-01T04:30:18;14.10;99.90
13482;DHT22;6813;60.352;15.746;2023-08-01T04:32:44;14.00;99.90
13482;DHT22;6813;60.352;15.746;2023-08-01T04:35:09;14.00;99.90
13482;DHT22;6813;60.352;15.746;2023-08-01T04:37:35;14.00;99.90
13482;DHT22;6813;60.352;15.746;2023-08-01T04:40:01;14.00;99.90
13482;DHT22;6813;60.352;15.746;2023-08-01T04:42:29;13.90;99.90
13482;DHT22;6813;60.352;15.746;2023-08-01T04:44:55;14.00;99.90
13482;DHT22;6813;60.352;15.746;2023-08-01T04:47:21;13.90;99.90
13482;DHT22;6813;60.352;15.746;2023-08-01T04:49:47;13.80;99.90
13482;DHT22;6813;60.352;15.746;2023-08-01T04:52:13;13.80;99.90
13482;DHT22;6813;60.352;15.746;2023-08-01T04:54:38;13.90;99.90
13482;DHT22;6813;60.352;15.746;2023-08-01T04:57:04;13.90;99.90
13482;DHT22;6813;60.352;15.746;2023-08-01T04:59:30;13.90;99.90
13482;DHT22;6813;60.352;15.746;2023-08-01T05:01:56;13.90;99.90
13482;DHT22;6813;60.352;15.746;2023-08-01T05:04:22;13.90;99.90
13482;DHT22;6813;60.352;15.746;2023-08-01T05:06:47;13.90;99.90
13482;DHT22;6813;60.352;15.746;2023-08-01T05:09:13;13.90;99.90
13482;DHT22;6813;60.352;15.746;2023-08-01T05:11:39;13.90;99.90
13482;DHT22;6813;60.352;15.746;2023-08-01T05:14:04;13.90;99.90
13482;DHT22;6813;60.352;15.746;2023-08-01T05:16:31;14.00;99.90
13482;DHT22;6813;60.352;15.746;2023-08-01T05:18:57;14.00;99.90
13482;DHT22;6813;60.352;15.746;2023-08-01T05:21:22;14.00;99.90
13482;DHT22;6813;60.352;15.746;2023-08-01T05:23:48;14.00;99.90
13482;DHT22;6813;60.352;15.746;2023-08-01T05:26:14;14.10;99.90
13482;DHT22;6813;60.352;15.746;2023-08-01T05:28:39;14.10;99.90
13482;DHT22;6813;60.352;15.746;2023-08-01T05:31:05;14.00;99.90
13482;DHT22;6813;60.352;15.746;2023-08-01T05:33:31;14.10;99.90
13482;DHT22;6813;60.352;15.746;2023-08-01T05:35:56;14.10;99.90
13482;DHT22;6813;60.352;15.746;2023-08-01T05:38:22;14.10;99.90
13482;DHT22;6813;60.352;15.746;2023-08-01T05:40:48;14.20;99.90
13482;DHT22;6813;60.352;15.746;2023-08-01T05:43:14;14.20;99.90
13482;DHT22;6813;60.352;15.746;2023-08-01T05:45:39;14.20;99.90
13482;DHT22;6813;60.352;15.746;2023-08-01T05:48:05;14.10;99.90
13482;DHT22;6813;60.352;15.746;2023-08-01T05:50:31;14.20;99.90
13482;DHT22;6813;60.352;15.746;2023-08-01T05:52:57;14.30;99.90
13482;DHT22;6813;60.352;15.746;2023-08-01T05:55:22;14.40;99.90
13482;DHT22;6813;60.352;15.746;2023-08-01T05:57:48;14.40;99.90
13482;DHT22;6813;60.352;15.746;2023-08-01T06:00:18;14.50;99.90
13482;DHT22;6813;60.352;15.746;2023-08-01T06:02:44;14.60;99.90
13482;DHT22;6813;60.352;15.746;2023-08-01T06:05:10;14.80;99.90
13482;DHT22;6813;60.352;15.746;2023-08-01T06:07:36;14.80;99.90
13482;DHT22;6813;60.352;15.746;2023-08-01T06:10:02;14.90;99.90
13482;DHT22;6813;60.352;15.746;2023-08-01T06:12:28;14.80;99.90
13482;DHT22;6813;60.352;15.746;2023-08-01T06:14:54;14.90;99.90
13482;DHT22;6813;60.352;15.746;2023-08-01T06:17:20;14.80;99.90
13482;DHT22;6813;60.352;15.746;2023-08-01T06:19:46;14.80;99.90
13482;DHT22;6813;60.352;15.746;2023-08-01T06:22:11;14.90;99.90
13482;DHT22;6813;60.352;15.746;2023-08-01T06:24:37;14.70;99.90
13482;DHT22;6813;60.352;15.746;2023-08-01T06:27:03;14.70;99.90
13482;DHT22;6813;60.352;15.746;2023-08-01T06:29:30;14.70;99.90
13482;DHT22;6813;60.352;15.746;2023-08-01T06:31:56;14.70;99.90
13482;DHT22;6813;60.352;15.746;2023-08-01T06:34:22;14.60;99.90
13482;DHT22;6813;60.352;15.746;2023-08-01T06:36:48;14.50;99.90
13482;DHT22;6813;60.352;15.746;2023-08-01T06:39:14;14.50;99.90
13482;DHT22;6813;60.352;15.746;2023-08-01T06:41:39;14.40;99.90
13482;DHT22;6813;60.352;15.746;2023-08-01T06:44:05;14.40;99.90
13482;DHT22;6813;60.352;15.746;2023-08-01T06:46:31;14.40;99.90
13482;DHT22;6813;60.352;15.746;2023-08-01T06:48:56;14.40;99.90
13482;DHT22;6813;60.352;15.746;2023-08-01T06:51:22;14.40;99.90
13482;DHT22;6813;60.352;15.746;2023-08-01T06:53:48;14.50;99.90
13482;DHT22;6813;60.352;15.746;2023-08-01T06:56:14;14.40;99.90
13482;DHT22;6813;60.352;15.746;2023-08-01T06:58:39;14.50;99.90
13482;DHT22;6813;60.352;15.746;2023-08-01T07:01:05;14.30;99.90
13482;DHT22;6813;60.352;15.746;2023-08-01T07:03:31;14.30;99.90
13482;DHT22;6813;60.352;15.746;2023-08-01T07:05:57;14.30;99.90
13482;DHT22;6813;60.352;15.746;2023-08-01T07:08:23;14.20;99.90
13482;DHT22;6813;60.352;15.746;2023-08-01T07:10:49;14.20;99.90
13482;DHT22;6813;60.352;15.746;2023-08-01T07:13:14;14.40;99.90
13482;DHT22;6813;60.352;15.746;2023-08-01T07:15:41;14.40;99.90
13482;DHT22;6813;60.352;15.746;2023-08-01T07:18:07;14.50;99.90
13482;DHT22;6813;60.352;15.746;2023-08-01T07:20:33;14.50;99.90
13482;DHT22;6813;60.352;15.746;2023-08-01T07:22:59;14.50;99.90
13482;DHT22;6813;60.352;15.746;2023-08-01T07:25:24;14.50;99.90
13482;DHT22;6813;60.352;15.746;2023-08-01T07:27:50;14.60;99.90
13482;DHT22;6813;60.352;15.746;2023-08-01T07:30:17;14.70;99.90
13482;DHT22;6813;60.352;15.746;2023-08-01T07:32:43;14.80;99.90
13482;DHT22;6813;60.352;15.746;2023-08-01T07:35:09;14.80;99.90
13482;DHT22;6813;60.352;15.746;2023-08-01T07:37:35;14.90;99.90
13482;DHT22;6813;60.352;15.746;2023-08-01T07:40:04;15.00;99.90
13482;DHT22;6813;60.352;15.746;2023-08-01T07:42:30;15.00;99.90
13482;DHT22;6813;60.352;15.746;2023-08-01T07:44:56;15.20;99.90
13482;DHT22;6813;60.352;15.746;2023-08-01T07:47:22;15.40;99.90
13482;DHT22;6813;60.352;15.746;2023-08-01T07:49:49;15.60;99.90
13482;DHT22;6813;60.352;15.746;2023-08-01T07:52:15;15.60;99.90
13482;DHT22;6813;60.352;15.746;2023-08-01T07:54:41;15.50;99.90
13482;DHT22;6813;60.352;15.746;2023-08-01T07:57:07;15.60;99.90
13482;DHT22;6813;60.352;15.746;2023-08-01T07:59:33;15.70;99.90
13482;DHT22;6813;60.352;15.746;2023-08-01T08:01:58;15.90;99.90
13482;DHT22;6813;60.352;15.746;2023-08-01T08:04:24;16.10;99.90
13482;DHT22;6813;60.352;15.746;2023-08-01T08:06:50;16.10;99.90
13482;DHT22;6813;60.352;15.746;2023-08-01T08:09:17;16.00;99.90
13482;DHT22;6813;60.352;15.746;2023-08-01T08:11:43;15.90;99.90
13482;DHT22;6813;60.352;15.746;2023-08-01T08:14:08;15.70;99.90
13482;DHT22;6813;60.352;15.746;2023-08-01T08:16:34;15.70;99.90
13482;DHT22;6813;60.352;15.746;2023-08-01T08:19:00;15.90;99.90
13482;DHT22;6813;60.352;15.746;2023-08-01T08:21:26;16.00;99.90
13482;DHT22;6813;60.352;15.746;2023-08-01T08:23:52;16.30;99.90
13482;DHT22;6813;60.352;15.746;2023-08-01T08:26:17;16.40;99.90
13482;DHT22;6813;60.352;15.746;2023-08-01T08:28:44;16.70;99.90
13482;DHT22;6813;60.352;15.746;2023-08-01T08:31:10;17.20;99.90
13482;DHT22;6813;60.352;15.746;2023-08-01T08:33:36;17.10;99.90
13482;DHT22;6813;60.352;15.746;2023-08-01T08:36:01;17.00;99.90
13482;DHT22;6813;60.352;15.746;2023-08-01T08:38:27;17.00;99.90
13482;DHT22;6813;60.352;15.746;2023-08-01T08:41:14;17.20;99.90
13482;DHT22;6813;60.352;15.746;2023-08-01T08:43:44;17.30;99.90
13482;DHT22;6813;60.352;15.746;2023-08-01T08:46:10;17.50;99.90
13482;DHT22;6813;60.352;15.746;2023-08-01T08:48:39;17.70;99.90
13482;DHT22;6813;60.352;15.746;2023-08-01T08:51:06;17.80;99.90
13482;DHT22;6813;60.352;15.746;2023-08-01T08:53:33;17.90;99.90
13482;DHT22;6813;60.352;15.746;2023-08-01T08:56:01;18.00;99.90
13482;DHT22;6813;60.352;15.746;2023-08-01T08:58:29;18.10;99.90
13482;DHT22;6813;60.352;15.746;2023-08-01T09:00:55;18.10;99.90
13482;DHT22;6813;60.352;15.746;2023-08-01T09:03:21;18.10;99.90
13482;DHT22;6813;60.352;15.746;2023-08-01T09:05:51;18.20;99.90
13482;DHT22;6813;60.352;15.746;2023-08-01T09:08:20;18.10;99.90
13482;DHT22;6813;60.352;15.746;2023-08-01T09:10:47;18.20;99.90
13482;DHT22;6813;60.352;15.746;2023-08-01T09:13:13;18.20;99.90
13482;DHT22;6813;60.352;15.746;2023-08-01T09:15:42;18.20;99.90
13482;DHT22;6813;60.352;15.746;2023-08-01T09:18:10;18.40;99.90
13482;DHT22;6813;60.352;15.746;2023-08-01T09:20:41;18.50;99.90
13482;DHT22;6813;60.352;15.746;2023-08-01T09:23:09;18.70;99.90
13482;DHT22;6813;60.352;15.746;2023-08-01T09:25:35;18.70;99.90
13482;DHT22;6813;60.352;15.746;2023-08-01T09:28:01;18.60;99.90
13482;DHT22;6813;60.352;15.746;2023-08-01T09:30:26;18.40;99.90
13482;DHT22;6813;60.352;15.746;2023-08-01T09:32:57;18.40;99.90
13482;DHT22;6813;60.352;15.746;2023-08-01T09:35:24;18.30;99.90
13482;DHT22;6813;60.352;15.746;2023-08-01T09:37:50;18.10;99.90
13482;DHT22;6813;60.352;15.746;2023-08-01T09:40:16;18.20;99.90
13482;DHT22;6813;60.352;15.746;2023-08-01T09:42:43;18.20;99.90
13482;DHT22;6813;60.352;15.746;2023-08-01T09:45:16;18.20;99.90
13482;DHT22;6813;60.352;15.746;2023-08-01T09:47:43;18.30;99.90
13482;DHT22;6813;60.352;15.746;2023-08-01T09:50:10;18.30;99.90
13482;DHT22;6813;60.352;15.746;2023-08-01T09:52:36;18.60;99.90
13482;DHT22;6813;60.352;15.746;2023-08-01T09:55:02;18.70;99.90
13482;DHT22;6813;60.352;15.746;2023-08-01T09:57:30;19.00;99.90
13482;DHT22;6813;60.352;15.746;2023-08-01T09:59:56;19.20;99.90
13482;DHT22;6813;60.352;15.746;2023-08-01T10:02:24;19.10;99.90
13482;DHT22;6813;60.352;15.746;2023-08-01T10:04:52;19.10;99.90
13482;DHT22;6813;60.352;15.746;2023-08-01T10:07:23;19.20;99.90
13482;DHT22;6813;60.352;15.746;2023-08-01T10:09:50;19.40;99.90
13482;DHT22;6813;60.352;15.746;2023-08-01T10:12:17;19.20;99.90
13482;DHT22;6813;60.352;15.746;2023-08-01T10:14:46;19.10;99.90
13482;DHT22;6813;60.352;15.746;2023-08-01T10:17:13;19.20;99.90
13482;DHT22;6813;60.352;15.746;2023-08-01T10:19:40;19.30;99.90
13482;DHT22;6813;60.352;15.746;2023-08-01T10:22:07;19.50;99.90
13482;DHT22;6813;60.352;15.746;2023-08-01T10:24:34;19.50;99.90
13482;DHT22;6813;60.352;15.746;2023-08-01T10:27:20;19.10;99.90
13482;DHT22;6813;60.352;15.746;2023-08-01T10:29:59;19.10;99.90
13482;DHT22;6813;60.352;15.746;2023-08-01T10:32:36;19.10;99.90
13482;DHT22;6813;60.352;15.746;2023-08-01T10:35:03;19.00;99.90
13482;DHT22;6813;60.352;15.746;2023-08-01T10:37:43;19.00;99.90
13482;DHT22;6813;60.352;15.746;2023-08-01T10:40:11;19.10;99.90
13482;DHT22;6813;60.352;15.746;2023-08-01T10:42:44;19.20;99.90
13482;DHT22;6813;60.352;15.746;2023-08-01T10:45:22;19.10;99.90
13482;DHT22;6813;60.352;15.746;2023-08-01T10:47:51;19.10;99.90
13482;DHT22;6813;60.352;15.746;2023-08-01T10:50:18;19.20;99.90
13482;DHT22;6813;60.352;15.746;2023-08-01T10:52:45;19.10;99.90
13482;DHT22;6813;60.352;15.746;2023-08-01T10:55:12;19.20;99.90
13482;DHT22;6813;60.352;15.746;2023-08-01T10:57:48;19.10;99.90
13482;DHT22;6813;60.352;15.746;2023-08-01T11:00:16;18.90;99.90
13482;DHT22;6813;60.352;15.746;2023-08-01T11:02:51;18.90;99.90
13482;DHT22;6813;60.352;15.746;2023-08-01T11:05:18;18.90;99.90
13482;DHT22;6813;60.352;15.746;2023-08-01T11:07:57;19.00;99.90
13482;DHT22;6813;60.352;15.746;2023-08-01T11:10:25;19.00;99.90
13482;DHT22;6813;60.352;15.746;2023-08-01T11:12:50;19.00;99.90
13482;DHT22;6813;60.352;15.746;2023-08-01T11:15:16;19.10;99.90
13482;DHT22;6813;60.352;15.746;2023-08-01T11:17:46;19.30;99.90
13482;DHT22;6813;60.352;15.746;2023-08-01T11:20:13;19.50;99.90
13482;DHT22;6813;60.352;15.746;2023-08-01T11:22:55;19.60;99.90
13482;DHT22;6813;60.352;15.746;2023-08-01T11:25:39;19.70;99.90
13482;DHT22;6813;60.352;15.746;2023-08-01T11:28:07;20.00;99.90
13482;DHT22;6813;60.352;15.746;2023-08-01T11:30:33;20.20;99.90
13482;DHT22;6813;60.352;15.746;2023-08-01T11:32:59;20.50;99.90
13482;DHT22;6813;60.352;15.746;2023-08-01T11:35:25;20.70;99.90
13482;DHT22;6813;60.352;15.746;2023-08-01T11:37:51;20.70;99.90
13482;DHT22;6813;60.352;15.746;2023-08-01T11:40:17;20.50;99.90
13482;DHT22;6813;60.352;15.746;2023-08-01T11:42:49;20.30;99.90
13482;DHT22;6813;60.352;15.746;2023-08-01T11:45:16;20.10;99.90
13482;DHT22;6813;60.352;15.746;2023-08-01T11:47:46;20.20;99.90
13482;DHT22;6813;60.352;15.746;2023-08-01T11:50:13;20.50;99.90
13482;DHT22;6813;60.352;15.746;2023-08-01T11:52:39;20.80;99.90
13482;DHT22;6813;60.352;15.746;2023-08-01T11:55:05;21.20;99.90
13482;DHT22;6813;60.352;15.746;2023-08-01T11:57:31;21.20;99.90
13482;DHT22;6813;60.352;15.746;2023-08-01T11:59:56;20.90;99.90
13482;DHT22;6813;60.352;15.746;2023-08-01T12:02:27;20.80;99.90
13482;DHT22;6813;60.352;15.746;2023-08-01T12:04:53;20.50;99.90
13482;DHT22;6813;60.352;15.746;2023-08-01T12:07:19;20.40;99.90
13482;DHT22;6813;60.352;15.746;2023-08-01T12:09:59;20.30;99.90
13482;DHT22;6813;60.352;15.746;2023-08-01T12:12:28;20.40;99.90
13482;DHT22;6813;60.352;15.746;2023-08-01T12:14:55;20.50;99.90
13482;DHT22;6813;60.352;15.746;2023-08-01T12:17:22;20.60;99.90
13482;DHT22;6813;60.352;15.746;2023-08-01T12:19:47;20.40;99.90
13482;DHT22;6813;60.352;15.746;2023-08-01T12:22:13;20.50;99.90
13482;DHT22;6813;60.352;15.746;2023-08-01T12:24:40;20.60;99.90
13482;DHT22;6813;60.352;15.746;2023-08-01T12:27:08;20.70;99.90
13482;DHT22;6813;60.352;15.746;2023-08-01T12:29:35;20.60;99.90
13482;DHT22;6813;60.352;15.746;2023-08-01T12:32:02;20.60;99.90
13482;DHT22;6813;60.352;15.746;2023-08-01T12:34:28;20.70;99.90
13482;DHT22;6813;60.352;15.746;2023-08-01T12:36:54;20.60;99.90
13482;DHT22;6813;60.352;15.746;2023-08-01T12:39:19;20.40;99.90
13482;DHT22;6813;60.352;15.746;2023-08-01T12:41:45;20.30;99.90
13482;DHT22;6813;60.352;15.746;2023-08-01T12:44:10;20.00;99.90
13482;DHT22;6813;60.352;15.746;2023-08-01T12:46:37;19.90;99.90
13482;DHT22;6813;60.352;15.746;2023-08-01T12:49:02;20.10;99.90
13482;DHT22;6813;60.352;15.746;2023-08-01T12:51:28;20.40;99.90
13482;DHT22;6813;60.352;15.746;2023-08-01T12:53:54;20.70;99.90
13482;DHT22;6813;60.352;15.746;2023-08-01T12:56:19;20.70;99.90
13482;DHT22;6813;60.352;15.746;2023-08-01T12:58:45;20.60;99.90
13482;DHT22;6813;60.352;15.746;2023-08-01T13:01:11;20.70;99.90
13482;DHT22;6813;60.352;15.746;2023-08-01T13:03:37;20.70;99.90
13482;DHT22;6813;60.352;15.746;2023-08-01T13:06:02;20.60;99.90
13482;DHT22;6813;60.352;15.746;2023-08-01T13:08:28;20.50;99.90
13482;DHT22;6813;60.352;15.746;2023-08-01T13:10:54;20.40;99.90
13482;DHT22;6813;60.352;15.746;2023-08-01T13:13:20;20.40;99.90
13482;DHT22;6813;60.352;15.746;2023-08-01T13:15:46;20.30;99.90
13482;DHT22;6813;60.352;15.746;2023-08-01T13:18:11;20.30;99.90
13482;DHT22;6813;60.352;15.746;2023-08-01T13:20:37;20.40;99.90
13482;DHT22;6813;60.352;15.746;2023-08-01T13:23:03;20.30;99.90
13482;DHT22;6813;60.352;15.746;2023-08-01T13:25:29;20.20;99.90
13482;DHT22;6813;60.352;15.746;2023-08-01T13:27:55;20.10;99.90
13482;DHT22;6813;60.352;15.746;2023-08-01T13:30:21;20.10;99.90
13482;DHT22;6813;60.352;15.746;2023-08-01T13:32:47;20.10;99.90
13482;DHT22;6813;60.352;15.746;2023-08-01T13:35:13;20.00;99.90
13482;DHT22;6813;60.352;15.746;2023-08-01T13:37:39;20.10;99.90
13482;DHT22;6813;60.352;15.746;2023-08-01T13:40:05;20.20;99.90
13482;DHT22;6813;60.352;15.746;2023-08-01T13:42:31;20.30;99.90
13482;DHT22;6813;60.352;15.746;2023-08-01T13:44:57;20.20;99.90
13482;DHT22;6813;60.352;15.746;2023-08-01T13:47:23;20.40;99.90
13482;DHT22;6813;60.352;15.746;2023-08-01T13:49:48;20.40;99.90
13482;DHT22;6813;60.352;15.746;2023-08-01T13:52:14;20.30;99.90
13482;DHT22;6813;60.352;15.746;2023-08-01T13:54:40;20.00;99.90
13482;DHT22;6813;60.352;15.746;2023-08-01T13:57:06;20.00;99.90
13482;DHT22;6813;60.352;15.746;2023-08-01T13:59:32;20.00;99.90
13482;DHT22;6813;60.352;15.746;2023-08-01T14:01:57;20.20;99.90
13482;DHT22;6813;60.352;15.746;2023-08-01T14:04:23;20.40;99.90
13482;DHT22;6813;60.352;15.746;2023-08-01T14:06:49;20.40;99.90
13482;DHT22;6813;60.352;15.746;2023-08-01T14:09:14;20.60;99.90
13482;DHT22;6813;60.352;15.746;2023-08-01T14:11:40;20.60;99.90
13482;DHT22;6813;60.352;15.746;2023-08-01T14:14:06;20.70;99.90
13482;DHT22;6813;60.352;15.746;2023-08-01T14:16:32;20.80;99.90
13482;DHT22;6813;60.352;15.746;2023-08-01T14:19:01;20.50;99.90
13482;DHT22;6813;60.352;15.746;2023-08-01T14:21:29;20.10;99.90
13482;DHT22;6813;60.352;15.746;2023-08-01T14:23:54;19.90;99.90
13482;DHT22;6813;60.352;15.746;2023-08-01T14:26:20;19.70;99.90
13482;DHT22;6813;60.352;15.746;2023-08-01T14:28:46;19.50;99.90
13482;DHT22;6813;60.352;15.746;2023-08-01T14:31:11;19.50;99.90
13482;DHT22;6813;60.352;15.746;2023-08-01T14:33:37;19.30;99.90
13482;DHT22;6813;60.352;15.746;2023-08-01T14:36:08;19.20;99.90
13482;DHT22;6813;60.352;15.746;2023-08-01T14:38:33;19.20;99.90
13482;DHT22;6813;60.352;15.746;2023-08-01T14:41:02;19.30;99.90
13482;DHT22;6813;60.352;15.746;2023-08-01T14:43:28;19.30;99.90
13482;DHT22;6813;60.352;15.746;2023-08-01T14:45:53;19.30;99.90
13482;DHT22;6813;60.352;15.746;2023-08-01T14:48:19;19.30;99.90
13482;DHT22;6813;60.352;15.746;2023-08-01T14:50:46;19.40;99.90
13482;DHT22;6813;60.352;15.746;2023-08-01T14:53:12;19.40;99.90
13482;DHT22;6813;60.352;15.746;2023-08-01T14:55:37;19.40;99.90
13482;DHT22;6813;60.352;15.746;2023-08-01T14:58:03;19.40;99.90
13482;DHT22;6813;60.352;15.746;2023-08-01T15:00:34;19.40;99.90
13482;DHT22;6813;60.352;15.746;2023-08-01T15:03:00;19.50;99.90
13482;DHT22;6813;60.352;15.746;2023-08-01T15:05:25;19.50;99.90
13482;DHT22;6813;60.352;15.746;2023-08-01T15:07:51;19.50;99.90
13482;DHT22;6813;60.352;15.746;2023-08-01T15:10:17;19.60;99.90
13482;DHT22;6813;60.352;15.746;2023-08-01T15:12:42;19.50;99.90
13482;DHT22;6813;60.352;15.746;2023-08-01T15:15:09;19.50;99.90
13482;DHT22;6813;60.352;15.746;2023-08-01T15:17:34;19.50;99.90
13482;DHT22;6813;60.352;15.746;2023-08-01T15:20:01;19.40;99.90
13482;DHT22;6813;60.352;15.746;2023-08-01T15:22:28;19.30;99.90
13482;DHT22;6813;60.352;15.746;2023-08-01T15:24:54;19.40;99.90